sensor_id;sensor_type;location;lat;lon;timestamp;P1;durP1;ratioP1;P2;durP2;ratioP2
33714;SDS011;20043;50.998;4.754;2022-09-13T00:00:40;11.55;;;2.58;;
33714;SDS011;20043;50.998;4.754;2022-09-13T00:03:07;12.05;;;2.65;;
33714;SDS011;20043;50.998;4.754;2022-09-13T00:05:34;4.18;;;2.88;;
33714;SDS011;20043;50.998;4.754;2022-09-13T00:08:00;3.53;;;2.45;;
33714;SDS011;20043;50.998;4.754;2022-09-13T00:10:26;8.70;;;2.35;;
33714;SDS011;20043;50.998;4.754;2022-09-13T00:12:52;9.82;;;2.88;;
33714;SDS011;20043;50.998;4.754;2022-09-13T00:15:18;4.88;;;2.55;;
33714;SDS011;20043;50.998;4.754;2022-09-13T00:17:44;5.85;;;2.50;;
33714;SDS011;20043;50.998;4.754;2022-09-13T00:20:11;5.03;;;2.60;;
33714;SDS011;20043;50.998;4.754;2022-09-13T00:22:36;5.50;;;2.45;;
33714;SDS011;20043;50.998;4.754;2022-09-13T00:25:03;5.15;;;2.50;;
33714;SDS011;20043;50.998;4.754;2022-09-13T00:27:31;7.72;;;2.90;;
33714;SDS011;20043;50.998;4.754;2022-09-13T00:29:57;11.68;;;3.17;;
33714;SDS011;20043;50.998;4.754;2022-09-13T00:32:23;8.10;;;2.88;;
33714;SDS011;20043;50.998;4.754;2022-09-13T00:34:48;5.25;;;2.70;;
33714;SDS011;20043;50.998;4.754;2022-09-13T00:37:14;8.40;;;2.28;;
33714;SDS011;20043;50.998;4.754;2022-09-13T00:39:40;5.25;;;2.10;;
33714;SDS011;20043;50.998;4.754;2022-09-13T00:42:08;6.95;;;3.03;;
33714;SDS011;20043;50.998;4.754;2022-09-13T00:44:45;3.67;;;2.53;;
33714;SDS011;20043;50.998;4.754;2022-09-13T00:47:12;6.65;;;3.00;;
33714;SDS011;20043;50.998;4.754;2022-09-13T00:49:40;7.05;;;2.92;;
33714;SDS011;20043;50.998;4.754;2022-09-13T00:52:11;5.72;;;2.75;;
33714;SDS011;20043;50.998;4.754;2022-09-13T00:54:44;4.82;;;2.67;;
33714;SDS011;20043;50.998;4.754;2022-09-13T00:57:17;4.75;;;2.75;;
33714;SDS011;20043;50.998;4.754;2022-09-13T00:59:49;7.32;;;2.90;;
33714;SDS011;20043;50.998;4.754;2022-09-13T01:02:22;6.80;;;2.92;;
33714;SDS011;20043;50.998;4.754;2022-09-13T01:04:48;7.05;;;2.83;;
33714;SDS011;20043;50.998;4.754;2022-09-13T01:07:14;6.75;;;2.90;;
33714;SDS011;20043;50.998;4.754;2022-09-13T01:09:42;4.28;;;2.70;;
33714;SDS011;20043;50.998;4.754;2022-09-13T01:12:28;7.18;;;2.80;;
33714;SDS011;20043;50.998;4.754;2022-09-13T01:15:04;5.18;;;2.75;;
33714;SDS011;20043;50.998;4.754;2022-09-13T01:17:31;6.50;;;3.15;;
33714;SDS011;20043;50.998;4.754;2022-09-13T01:19:58;5.03;;;2.67;;
33714;SDS011;20043;50.998;4.754;2022-09-13T01:30:22;7.45;;;2.85;;
33714;SDS011;20043;50.998;4.754;2022-09-13T01:46:49;8.43;;;2.80;;
33714;SDS011;20043;50.998;4.754;2022-09-13T01:55:32;4.28;;;2.78;;
33714;SDS011;20043;50.998;4.754;2022-09-13T01:58:28;5.05;;;2.75;;
33714;SDS011;20043;50.998;4.754;2022-09-13T02:01:04;5.13;;;2.88;;
33714;SDS011;20043;50.998;4.754;2022-09-13T02:03:44;6.80;;;2.42;;
33714;SDS011;20043;50.998;4.754;2022-09-13T02:06:11;2.83;;;2.40;;
33714;SDS011;20043;50.998;4.754;2022-09-13T02:08:42;8.13;;;2.50;;
33714;SDS011;20043;50.998;4.754;2022-09-13T02:11:12;5.10;;;2.67;;
33714;SDS011;20043;50.998;4.754;2022-09-13T02:13:42;4.05;;;2.30;;
33714;SDS011;20043;50.998;4.754;2022-09-13T02:19:02;5.97;;;2.80;;
33714;SDS011;20043;50.998;4.754;2022-09-13T02:21:38;7.13;;;2.70;;
33714;SDS011;20043;50.998;4.754;2022-09-13T02:24:10;4.45;;;2.47;;
33714;SDS011;20043;50.998;4.754;2022-09-13T02:26:40;6.05;;;2.25;;
33714;SDS011;20043;50.998;4.754;2022-09-13T02:29:10;4.70;;;2.55;;
33714;SDS011;20043;50.998;4.754;2022-09-13T02:31:42;4.15;;;2.53;;
33714;SDS011;20043;50.998;4.754;2022-09-13T02:34:24;4.05;;;2.30;;
33714;SDS011;20043;50.998;4.754;2022-09-13T02:36:55;4.40;;;2.60;;
33714;SDS011;20043;50.998;4.754;2022-09-13T02:39:23;5.20;;;2.45;;
33714;SDS011;20043;50.998;4.754;2022-09-13T02:41:52;9.38;;;2.58;;
33714;SDS011;20043;50.998;4.754;2022-09-13T02:44:25;8.23;;;2.90;;
33714;SDS011;20043;50.998;4.754;2022-09-13T02:55:15;3.55;;;2.90;;
33714;SDS011;20043;50.998;4.754;2022-09-13T02:58:02;4.15;;;2.60;;
33714;SDS011;20043;50.998;4.754;2022-09-13T03:00:36;6.82;;;2.70;;
33714;SDS011;20043;50.998;4.754;2022-09-13T03:03:03;6.90;;;2.70;;
33714;SDS011;20043;50.998;4.754;2022-09-13T03:05:32;3.72;;;2.80;;
33714;SDS011;20043;50.998;4.754;2022-09-13T03:07:57;6.63;;;3.10;;
33714;SDS011;20043;50.998;4.754;2022-09-13T03:10:24;5.53;;;2.83;;
33714;SDS011;20043;50.998;4.754;2022-09-13T03:26:54;4.45;;;2.50;;
33714;SDS011;20043;50.998;4.754;2022-09-13T03:29:57;6.80;;;2.47;;
33714;SDS011;20043;50.998;4.754;2022-09-13T03:32:48;5.40;;;2.40;;
33714;SDS011;20043;50.998;4.754;2022-09-13T03:38:12;8.07;;;2.67;;
33714;SDS011;20043;50.998;4.754;2022-09-13T03:40:46;7.88;;;3.00;;
33714;SDS011;20043;50.998;4.754;2022-09-13T03:45:48;9.15;;;2.72;;
33714;SDS011;20043;50.998;4.754;2022-09-13T03:48:21;7.55;;;2.92;;
33714;SDS011;20043;50.998;4.754;2022-09-13T03:50:47;7.82;;;3.08;;
33714;SDS011;20043;50.998;4.754;2022-09-13T03:53:19;6.88;;;3.00;;
33714;SDS011;20043;50.998;4.754;2022-09-13T03:55:47;7.45;;;3.00;;
33714;SDS011;20043;50.998;4.754;2022-09-13T03:58:14;4.78;;;2.88;;
33714;SDS011;20043;50.998;4.754;2022-09-13T04:00:42;5.18;;;2.90;;
33714;SDS011;20043;50.998;4.754;2022-09-13T04:03:09;6.25;;;2.85;;
33714;SDS011;20043;50.998;4.754;2022-09-13T04:05:36;5.43;;;2.75;;
33714;SDS011;20043;50.998;4.754;2022-09-13T04:08:03;6.13;;;3.05;;
33714;SDS011;20043;50.998;4.754;2022-09-13T04:10:30;7.85;;;3.17;;
33714;SDS011;20043;50.998;4.754;2022-09-13T04:12:57;5.00;;;2.78;;
33714;SDS011;20043;50.998;4.754;2022-09-13T04:15:24;12.80;;;3.00;;
33714;SDS011;20043;50.998;4.754;2022-09-13T04:17:50;5.00;;;2.63;;
33714;SDS011;20043;50.998;4.754;2022-09-13T04:20:16;5.63;;;3.22;;
33714;SDS011;20043;50.998;4.754;2022-09-13T04:22:42;6.95;;;2.60;;
33714;SDS011;20043;50.998;4.754;2022-09-13T04:25:08;5.40;;;2.45;;
33714;SDS011;20043;50.998;4.754;2022-09-13T04:27:33;9.23;;;3.28;;
33714;SDS011;20043;50.998;4.754;2022-09-13T04:30:02;7.93;;;2.70;;
33714;SDS011;20043;50.998;4.754;2022-09-13T04:32:28;6.93;;;3.03;;
33714;SDS011;20043;50.998;4.754;2022-09-13T04:34:54;4.28;;;2.58;;
33714;SDS011;20043;50.998;4.754;2022-09-13T04:37:19;6.15;;;2.60;;
33714;SDS011;20043;50.998;4.754;2022-09-13T04:39:45;6.80;;;3.15;;
33714;SDS011;20043;50.998;4.754;2022-09-13T04:42:11;7.28;;;2.72;;
33714;SDS011;20043;50.998;4.754;2022-09-13T04:44:37;5.38;;;2.70;;
33714;SDS011;20043;50.998;4.754;2022-09-13T04:47:03;8.07;;;2.72;;
33714;SDS011;20043;50.998;4.754;2022-09-13T04:49:29;6.47;;;2.95;;
33714;SDS011;20043;50.998;4.754;2022-09-13T04:51:55;9.98;;;3.42;;
33714;SDS011;20043;50.998;4.754;2022-09-13T04:54:21;5.15;;;2.70;;
33714;SDS011;20043;50.998;4.754;2022-09-13T04:56:47;6.60;;;2.78;;
33714;SDS011;20043;50.998;4.754;2022-09-13T04:59:12;3.45;;;2.75;;
33714;SDS011;20043;50.998;4.754;2022-09-13T05:01:39;7.75;;;2.85;;
33714;SDS011;20043;50.998;4.754;2022-09-13T05:04:05;5.70;;;2.97;;
33714;SDS011;20043;50.998;4.754;2022-09-13T05:06:32;5.45;;;2.53;;
33714;SDS011;20043;50.998;4.754;2022-09-13T05:08:58;6.55;;;2.58;;
33714;SDS011;20043;50.998;4.754;2022-09-13T05:11:24;10.57;;;2.72;;
33714;SDS011;20043;50.998;4.754;2022-09-13T05:13:52;5.75;;;2.70;;
33714;SDS011;20043;50.998;4.754;2022-09-13T05:16:20;6.00;;;2.63;;
33714;SDS011;20043;50.998;4.754;2022-09-13T05:18:47;5.25;;;3.05;;
33714;SDS011;20043;50.998;4.754;2022-09-13T05:21:12;6.10;;;2.65;;
33714;SDS011;20043;50.998;4.754;2022-09-13T05:23:38;7.00;;;2.50;;
33714;SDS011;20043;50.998;4.754;2022-09-13T05:26:04;7.65;;;2.63;;
33714;SDS011;20043;50.998;4.754;2022-09-13T05:28:32;4.35;;;2.50;;
33714;SDS011;20043;50.998;4.754;2022-09-13T05:31:06;5.10;;;2.75;;
33714;SDS011;20043;50.998;4.754;2022-09-13T05:33:35;7.55;;;2.45;;
33714;SDS011;20043;50.998;4.754;2022-09-13T05:36:02;13.85;;;2.70;;
33714;SDS011;20043;50.998;4.754;2022-09-13T05:38:28;6.35;;;2.60;;
33714;SDS011;20043;50.998;4.754;2022-09-13T05:40:54;5.03;;;2.65;;
33714;SDS011;20043;50.998;4.754;2022-09-13T05:43:25;7.90;;;2.50;;
33714;SDS011;20043;50.998;4.754;2022-09-13T05:46:05;8.15;;;2.70;;
33714;SDS011;20043;50.998;4.754;2022-09-13T05:48:33;14.23;;;3.15;;
33714;SDS011;20043;50.998;4.754;2022-09-13T05:51:06;4.32;;;2.72;;
33714;SDS011;20043;50.998;4.754;2022-09-13T05:53:36;6.03;;;2.67;;
33714;SDS011;20043;50.998;4.754;2022-09-13T05:56:04;7.88;;;2.95;;
33714;SDS011;20043;50.998;4.754;2022-09-13T05:58:31;8.77;;;3.08;;
33714;SDS011;20043;50.998;4.754;2022-09-13T06:00:57;6.50;;;3.05;;
33714;SDS011;20043;50.998;4.754;2022-09-13T06:03:23;7.18;;;2.92;;
33714;SDS011;20043;50.998;4.754;2022-09-13T06:05:49;14.70;;;3.35;;
33714;SDS011;20043;50.998;4.754;2022-09-13T06:08:19;8.27;;;3.58;;
33714;SDS011;20043;50.998;4.754;2022-09-13T06:10:52;7.00;;;2.90;;
33714;SDS011;20043;50.998;4.754;2022-09-13T06:13:19;5.88;;;2.80;;
33714;SDS011;20043;50.998;4.754;2022-09-13T06:15:44;6.70;;;3.08;;
33714;SDS011;20043;50.998;4.754;2022-09-13T06:18:10;11.00;;;2.85;;
33714;SDS011;20043;50.998;4.754;2022-09-13T06:20:36;9.43;;;3.03;;
33714;SDS011;20043;50.998;4.754;2022-09-13T06:23:01;7.13;;;2.90;;
33714;SDS011;20043;50.998;4.754;2022-09-13T06:25:27;6.82;;;3.10;;
33714;SDS011;20043;50.998;4.754;2022-09-13T06:27:52;10.45;;;3.10;;
33714;SDS011;20043;50.998;4.754;2022-09-13T06:30:18;8.40;;;2.90;;
33714;SDS011;20043;50.998;4.754;2022-09-13T06:32:43;7.30;;;2.97;;
33714;SDS011;20043;50.998;4.754;2022-09-13T06:35:09;9.15;;;3.20;;
33714;SDS011;20043;50.998;4.754;2022-09-13T06:37:35;7.35;;;2.97;;
33714;SDS011;20043;50.998;4.754;2022-09-13T06:40:00;7.40;;;2.92;;
33714;SDS011;20043;50.998;4.754;2022-09-13T06:42:29;4.47;;;2.90;;
33714;SDS011;20043;50.998;4.754;2022-09-13T06:44:54;6.15;;;2.92;;
33714;SDS011;20043;50.998;4.754;2022-09-13T06:47:20;7.07;;;3.15;;
33714;SDS011;20043;50.998;4.754;2022-09-13T06:49:45;7.57;;;3.47;;
33714;SDS011;20043;50.998;4.754;2022-09-13T06:52:11;8.10;;;3.38;;
33714;SDS011;20043;50.998;4.754;2022-09-13T06:54:37;5.30;;;3.15;;
33714;SDS011;20043;50.998;4.754;2022-09-13T06:57:03;8.65;;;3.30;;
33714;SDS011;20043;50.998;4.754;2022-09-13T06:59:29;5.43;;;3.25;;
33714;SDS011;20043;50.998;4.754;2022-09-13T07:01:54;7.63;;;3.00;;
33714;SDS011;20043;50.998;4.754;2022-09-13T07:04:21;4.35;;;2.88;;
33714;SDS011;20043;50.998;4.754;2022-09-13T07:06:48;6.10;;;2.90;;
33714;SDS011;20043;50.998;4.754;2022-09-13T07:09:17;6.57;;;2.60;;
33714;SDS011;20043;50.998;4.754;2022-09-13T07:11:45;6.45;;;3.22;;
33714;SDS011;20043;50.998;4.754;2022-09-13T07:14:16;4.40;;;2.53;;
33714;SDS011;20043;50.998;4.754;2022-09-13T07:16:47;8.32;;;3.60;;
33714;SDS011;20043;50.998;4.754;2022-09-13T07:19:14;6.10;;;3.03;;
33714;SDS011;20043;50.998;4.754;2022-09-13T07:21:41;6.57;;;2.83;;
33714;SDS011;20043;50.998;4.754;2022-09-13T07:24:07;8.52;;;3.10;;
33714;SDS011;20043;50.998;4.754;2022-09-13T07:26:33;8.50;;;3.10;;
33714;SDS011;20043;50.998;4.754;2022-09-13T07:29:00;7.15;;;3.10;;
33714;SDS011;20043;50.998;4.754;2022-09-13T07:31:29;6.88;;;2.88;;
33714;SDS011;20043;50.998;4.754;2022-09-13T07:33:57;13.52;;;3.00;;
33714;SDS011;20043;50.998;4.754;2022-09-13T07:36:25;6.45;;;2.97;;
33714;SDS011;20043;50.998;4.754;2022-09-13T07:38:52;7.05;;;3.28;;
33714;SDS011;20043;50.998;4.754;2022-09-13T07:41:21;8.77;;;2.65;;
33714;SDS011;20043;50.998;4.754;2022-09-13T07:43:48;6.05;;;2.85;;
33714;SDS011;20043;50.998;4.754;2022-09-13T07:46:16;6.95;;;3.75;;
33714;SDS011;20043;50.998;4.754;2022-09-13T07:48:44;10.45;;;3.20;;
33714;SDS011;20043;50.998;4.754;2022-09-13T07:51:14;9.02;;;3.40;;
33714;SDS011;20043;50.998;4.754;2022-09-13T07:53:43;9.15;;;3.33;;
33714;SDS011;20043;50.998;4.754;2022-09-13T07:56:10;11.25;;;4.05;;
33714;SDS011;20043;50.998;4.754;2022-09-13T07:58:38;11.40;;;3.60;;
33714;SDS011;20043;50.998;4.754;2022-09-13T08:01:06;10.18;;;3.42;;
33714;SDS011;20043;50.998;4.754;2022-09-13T08:03:38;8.15;;;3.20;;
33714;SDS011;20043;50.998;4.754;2022-09-13T08:06:04;11.32;;;3.78;;
33714;SDS011;20043;50.998;4.754;2022-09-13T08:08:31;9.60;;;3.55;;
33714;SDS011;20043;50.998;4.754;2022-09-13T08:10:58;7.82;;;3.30;;
33714;SDS011;20043;50.998;4.754;2022-09-13T08:13:25;9.88;;;3.58;;
33714;SDS011;20043;50.998;4.754;2022-09-13T08:15:51;13.73;;;3.92;;
33714;SDS011;20043;50.998;4.754;2022-09-13T08:18:17;7.53;;;3.67;;
33714;SDS011;20043;50.998;4.754;2022-09-13T08:20:43;9.48;;;3.30;;
33714;SDS011;20043;50.998;4.754;2022-09-13T08:23:09;7.55;;;3.40;;
33714;SDS011;20043;50.998;4.754;2022-09-13T08:25:36;8.48;;;3.75;;
33714;SDS011;20043;50.998;4.754;2022-09-13T08:28:09;7.40;;;3.90;;
33714;SDS011;20043;50.998;4.754;2022-09-13T08:30:39;6.80;;;3.60;;
33714;SDS011;20043;50.998;4.754;2022-09-13T08:33:07;10.77;;;4.38;;
33714;SDS011;20043;50.998;4.754;2022-09-13T08:35:33;15.18;;;5.20;;
33714;SDS011;20043;50.998;4.754;2022-09-13T08:37:59;10.85;;;4.88;;
33714;SDS011;20043;50.998;4.754;2022-09-13T08:40:29;13.00;;;6.32;;
33714;SDS011;20043;50.998;4.754;2022-09-13T08:45:26;16.20;;;6.00;;
33714;SDS011;20043;50.998;4.754;2022-09-13T08:47:55;11.68;;;6.60;;
33714;SDS011;20043;50.998;4.754;2022-09-13T08:50:26;10.68;;;7.10;;
33714;SDS011;20043;50.998;4.754;2022-09-13T08:52:57;13.07;;;6.95;;
33714;SDS011;20043;50.998;4.754;2022-09-13T09:03:51;12.80;;;6.55;;
33714;SDS011;20043;50.998;4.754;2022-09-13T09:06:22;11.52;;;5.85;;
33714;SDS011;20043;50.998;4.754;2022-09-13T09:09:06;9.68;;;5.72;;
33714;SDS011;20043;50.998;4.754;2022-09-13T09:11:50;9.68;;;5.82;;
33714;SDS011;20043;50.998;4.754;2022-09-13T09:14:28;12.38;;;6.20;;
33714;SDS011;20043;50.998;4.754;2022-09-13T09:16:59;11.00;;;5.68;;
33714;SDS011;20043;50.998;4.754;2022-09-13T09:19:49;9.90;;;5.82;;
33714;SDS011;20043;50.998;4.754;2022-09-13T09:22:20;14.18;;;5.70;;
33714;SDS011;20043;50.998;4.754;2022-09-13T09:24:48;12.10;;;5.57;;
33714;SDS011;20043;50.998;4.754;2022-09-13T09:27:18;8.07;;;5.80;;
33714;SDS011;20043;50.998;4.754;2022-09-13T09:29:46;12.65;;;5.45;;
33714;SDS011;20043;50.998;4.754;2022-09-13T09:37:56;11.50;;;5.05;;
33714;SDS011;20043;50.998;4.754;2022-09-13T09:40:45;24.45;;;6.45;;
33714;SDS011;20043;50.998;4.754;2022-09-13T09:43:25;15.38;;;6.53;;
33714;SDS011;20043;50.998;4.754;2022-09-13T09:45:59;12.95;;;5.75;;
33714;SDS011;20043;50.998;4.754;2022-09-13T09:48:28;12.13;;;5.30;;
33714;SDS011;20043;50.998;4.754;2022-09-13T09:51:01;9.27;;;5.40;;
33714;SDS011;20043;50.998;4.754;2022-09-13T09:53:32;8.80;;;6.00;;
33714;SDS011;20043;50.998;4.754;2022-09-13T09:56:20;9.38;;;5.15;;
33714;SDS011;20043;50.998;4.754;2022-09-13T09:58:51;7.70;;;4.30;;
33714;SDS011;20043;50.998;4.754;2022-09-13T10:03:59;10.73;;;5.00;;
33714;SDS011;20043;50.998;4.754;2022-09-13T10:06:32;11.25;;;5.22;;
33714;SDS011;20043;50.998;4.754;2022-09-13T10:09:00;9.55;;;4.28;;
33714;SDS011;20043;50.998;4.754;2022-09-13T10:11:39;15.60;;;4.35;;
33714;SDS011;20043;50.998;4.754;2022-09-13T10:14:26;11.50;;;5.22;;
33714;SDS011;20043;50.998;4.754;2022-09-13T10:17:28;8.68;;;4.95;;
33714;SDS011;20043;50.998;4.754;2022-09-13T10:19:55;12.00;;;5.22;;
33714;SDS011;20043;50.998;4.754;2022-09-13T10:22:23;8.18;;;4.55;;
33714;SDS011;20043;50.998;4.754;2022-09-13T10:24:50;7.15;;;5.07;;
33714;SDS011;20043;50.998;4.754;2022-09-13T10:27:20;7.22;;;4.30;;
33714;SDS011;20043;50.998;4.754;2022-09-13T10:29:56;7.03;;;4.30;;
33714;SDS011;20043;50.998;4.754;2022-09-13T10:32:25;7.15;;;4.15;;
33714;SDS011;20043;50.998;4.754;2022-09-13T10:34:53;7.57;;;3.80;;
33714;SDS011;20043;50.998;4.754;2022-09-13T10:37:25;79.35;;;40.25;;
33714;SDS011;20043;50.998;4.754;2022-09-13T10:39:57;6.80;;;3.42;;
33714;SDS011;20043;50.998;4.754;2022-09-13T10:42:33;4.85;;;3.00;;
33714;SDS011;20043;50.998;4.754;2022-09-13T10:45:03;5.88;;;3.22;;
33714;SDS011;20043;50.998;4.754;2022-09-13T10:53:42;6.75;;;3.20;;
33714;SDS011;20043;50.998;4.754;2022-09-13T10:56:25;8.43;;;3.88;;
33714;SDS011;20043;50.998;4.754;2022-09-13T10:58:57;5.78;;;3.00;;
33714;SDS011;20043;50.998;4.754;2022-09-13T11:01:43;6.70;;;3.10;;
33714;SDS011;20043;50.998;4.754;2022-09-13T11:04:39;7.43;;;3.05;;
33714;SDS011;20043;50.998;4.754;2022-09-13T11:10:18;5.80;;;3.25;;
33714;SDS011;20043;50.998;4.754;2022-09-13T11:12:55;5.20;;;2.92;;
33714;SDS011;20043;50.998;4.754;2022-09-13T11:15:49;4.82;;;2.63;;
33714;SDS011;20043;50.998;4.754;2022-09-13T11:26:38;5.18;;;2.50;;
33714;SDS011;20043;50.998;4.754;2022-09-13T11:40:33;7.28;;;2.92;;
33714;SDS011;20043;50.998;4.754;2022-09-13T11:43:30;7.35;;;3.20;;
33714;SDS011;20043;50.998;4.754;2022-09-13T11:56:37;5.47;;;2.55;;
33714;SDS011;20043;50.998;4.754;2022-09-13T11:59:09;4.38;;;2.88;;
33714;SDS011;20043;50.998;4.754;2022-09-13T12:01:57;7.53;;;3.08;;
33714;SDS011;20043;50.998;4.754;2022-09-13T12:04:33;8.00;;;3.20;;
33714;SDS011;20043;50.998;4.754;2022-09-13T12:07:05;9.88;;;3.42;;
33714;SDS011;20043;50.998;4.754;2022-09-13T12:09:40;4.38;;;2.80;;
33714;SDS011;20043;50.998;4.754;2022-09-13T12:12:15;6.97;;;2.90;;
33714;SDS011;20043;50.998;4.754;2022-09-13T12:14:48;7.68;;;3.55;;
33714;SDS011;20043;50.998;4.754;2022-09-13T12:17:45;7.43;;;3.10;;
33714;SDS011;20043;50.998;4.754;2022-09-13T12:20:27;7.07;;;3.40;;
33714;SDS011;20043;50.998;4.754;2022-09-13T12:22:53;7.60;;;3.53;;
33714;SDS011;20043;50.998;4.754;2022-09-13T12:25:23;7.43;;;3.20;;
33714;SDS011;20043;50.998;4.754;2022-09-13T12:27:54;9.95;;;3.70;;
33714;SDS011;20043;50.998;4.754;2022-09-13T12:30:22;9.40;;;3.05;;
33714;SDS011;20043;50.998;4.754;2022-09-13T12:32:50;6.85;;;3.33;;
33714;SDS011;20043;50.998;4.754;2022-09-13T12:35:22;6.75;;;2.80;;
33714;SDS011;20043;50.998;4.754;2022-09-13T12:38:15;7.10;;;3.27;;
33714;SDS011;20043;50.998;4.754;2022-09-13T12:41:05;7.90;;;2.55;;
33714;SDS011;20043;50.998;4.754;2022-09-13T12:43:55;7.40;;;2.63;;
33714;SDS011;20043;50.998;4.754;2022-09-13T12:51:58;6.00;;;2.65;;
33714;SDS011;20043;50.998;4.754;2022-09-13T12:55:00;7.35;;;2.70;;
33714;SDS011;20043;50.998;4.754;2022-09-13T13:01:00;11.23;;;2.50;;
33714;SDS011;20043;50.998;4.754;2022-09-13T13:06:24;8.15;;;3.08;;
33714;SDS011;20043;50.998;4.754;2022-09-13T13:08:54;5.22;;;2.55;;
33714;SDS011;20043;50.998;4.754;2022-09-13T13:11:22;6.32;;;2.60;;
33714;SDS011;20043;50.998;4.754;2022-09-13T13:13:57;7.20;;;2.70;;
33714;SDS011;20043;50.998;4.754;2022-09-13T13:16:33;10.70;;;2.80;;
33714;SDS011;20043;50.998;4.754;2022-09-13T13:22:03;9.77;;;3.15;;
33714;SDS011;20043;50.998;4.754;2022-09-13T13:25:25;4.88;;;3.03;;
33714;SDS011;20043;50.998;4.754;2022-09-13T13:27:54;8.55;;;2.65;;
33714;SDS011;20043;50.998;4.754;2022-09-13T13:30:33;6.53;;;3.10;;
33714;SDS011;20043;50.998;4.754;2022-09-13T13:33:16;8.40;;;2.40;;
33714;SDS011;20043;50.998;4.754;2022-09-13T13:35:46;10.02;;;2.45;;
33714;SDS011;20043;50.998;4.754;2022-09-13T13:38:13;4.63;;;1.85;;
33714;SDS011;20043;50.998;4.754;2022-09-13T13:41:07;13.80;;;2.55;;
33714;SDS011;20043;50.998;4.754;2022-09-13T13:43:58;6.85;;;2.58;;
33714;SDS011;20043;50.998;4.754;2022-09-13T13:46:30;7.97;;;2.40;;
33714;SDS011;20043;50.998;4.754;2022-09-13T13:49:39;7.63;;;2.70;;
33714;SDS011;20043;50.998;4.754;2022-09-13T14:08:22;5.93;;;2.45;;
33714;SDS011;20043;50.998;4.754;2022-09-13T14:24:49;6.45;;;2.63;;
33714;SDS011;20043;50.998;4.754;2022-09-13T14:27:21;4.28;;;2.50;;
33714;SDS011;20043;50.998;4.754;2022-09-13T14:30:02;5.30;;;2.95;;
33714;SDS011;20043;50.998;4.754;2022-09-13T14:32:41;5.75;;;3.30;;
33714;SDS011;20043;50.998;4.754;2022-09-13T14:35:28;8.20;;;3.45;;
33714;SDS011;20043;50.998;4.754;2022-09-13T14:38:18;7.93;;;3.40;;
33714;SDS011;20043;50.998;4.754;2022-09-13T14:40:51;7.47;;;3.33;;
33714;SDS011;20043;50.998;4.754;2022-09-13T14:43:22;6.72;;;3.30;;
33714;SDS011;20043;50.998;4.754;2022-09-13T14:46:36;9.05;;;3.60;;
33714;SDS011;20043;50.998;4.754;2022-09-13T14:49:02;6.25;;;3.75;;
33714;SDS011;20043;50.998;4.754;2022-09-13T14:51:32;6.05;;;3.33;;
33714;SDS011;20043;50.998;4.754;2022-09-13T14:54:12;8.02;;;3.40;;
33714;SDS011;20043;50.998;4.754;2022-09-13T14:56:45;7.80;;;3.30;;
33714;SDS011;20043;50.998;4.754;2022-09-13T14:59:24;6.93;;;3.72;;
33714;SDS011;20043;50.998;4.754;2022-09-13T15:01:53;8.27;;;4.03;;
33714;SDS011;20043;50.998;4.754;2022-09-13T15:04:21;11.05;;;3.67;;
33714;SDS011;20043;50.998;4.754;2022-09-13T15:06:48;6.25;;;3.40;;
33714;SDS011;20043;50.998;4.754;2022-09-13T15:09:32;6.40;;;3.45;;
33714;SDS011;20043;50.998;4.754;2022-09-13T15:11:59;8.32;;;3.70;;
33714;SDS011;20043;50.998;4.754;2022-09-13T15:17:08;11.30;;;4.20;;
33714;SDS011;20043;50.998;4.754;2022-09-13T15:22:02;13.27;;;4.85;;
33714;SDS011;20043;50.998;4.754;2022-09-13T15:24:36;8.73;;;5.68;;
33714;SDS011;20043;50.998;4.754;2022-09-13T15:27:15;11.40;;;5.63;;
33714;SDS011;20043;50.998;4.754;2022-09-13T15:29:49;10.32;;;5.28;;
33714;SDS011;20043;50.998;4.754;2022-09-13T15:32:22;12.88;;;5.90;;
33714;SDS011;20043;50.998;4.754;2022-09-13T15:34:54;15.23;;;7.03;;
33714;SDS011;20043;50.998;4.754;2022-09-13T15:37:29;11.60;;;8.07;;
33714;SDS011;20043;50.998;4.754;2022-09-13T15:40:13;11.65;;;8.80;;
33714;SDS011;20043;50.998;4.754;2022-09-13T15:42:39;13.18;;;9.88;;
33714;SDS011;20043;50.998;4.754;2022-09-13T15:45:08;17.23;;;10.80;;
33714;SDS011;20043;50.998;4.754;2022-09-13T15:47:34;15.90;;;11.48;;
33714;SDS011;20043;50.998;4.754;2022-09-13T15:50:01;20.88;;;12.25;;
33714;SDS011;20043;50.998;4.754;2022-09-13T15:52:26;16.33;;;11.55;;
33714;SDS011;20043;50.998;4.754;2022-09-13T15:54:52;16.55;;;11.73;;
33714;SDS011;20043;50.998;4.754;2022-09-13T15:57:27;15.05;;;11.88;;
33714;SDS011;20043;50.998;4.754;2022-09-13T15:59:54;18.90;;;11.98;;
33714;SDS011;20043;50.998;4.754;2022-09-13T16:02:22;17.52;;;12.05;;
33714;SDS011;20043;50.998;4.754;2022-09-13T16:04:49;12.63;;;11.18;;
33714;SDS011;20043;50.998;4.754;2022-09-13T16:07:15;17.10;;;11.73;;
33714;SDS011;20043;50.998;4.754;2022-09-13T16:09:41;17.67;;;11.18;;
33714;SDS011;20043;50.998;4.754;2022-09-13T16:12:08;17.52;;;11.48;;
33714;SDS011;20043;50.998;4.754;2022-09-13T16:14:33;16.25;;;11.63;;
33714;SDS011;20043;50.998;4.754;2022-09-13T16:17:00;22.88;;;12.82;;
33714;SDS011;20043;50.998;4.754;2022-09-13T16:21:59;17.13;;;12.65;;
33714;SDS011;20043;50.998;4.754;2022-09-13T16:24:25;19.15;;;12.55;;
33714;SDS011;20043;50.998;4.754;2022-09-13T16:26:52;17.88;;;12.35;;
33714;SDS011;20043;50.998;4.754;2022-09-13T16:29:18;17.08;;;11.90;;
33714;SDS011;20043;50.998;4.754;2022-09-13T16:31:43;18.58;;;11.80;;
33714;SDS011;20043;50.998;4.754;2022-09-13T16:34:09;18.58;;;12.20;;
33714;SDS011;20043;50.998;4.754;2022-09-13T16:36:35;15.50;;;11.88;;
33714;SDS011;20043;50.998;4.754;2022-09-13T16:39:00;15.43;;;12.43;;
33714;SDS011;20043;50.998;4.754;2022-09-13T16:41:26;13.95;;;11.50;;
33714;SDS011;20043;50.998;4.754;2022-09-13T16:43:55;15.68;;;12.02;;
33714;SDS011;20043;50.998;4.754;2022-09-13T16:46:21;14.77;;;11.77;;
33714;SDS011;20043;50.998;4.754;2022-09-13T16:48:53;13.80;;;11.55;;
33714;SDS011;20043;50.998;4.754;2022-09-13T16:51:20;15.77;;;11.90;;
33714;SDS011;20043;50.998;4.754;2022-09-13T16:53:47;19.00;;;11.30;;
33714;SDS011;20043;50.998;4.754;2022-09-13T16:56:14;14.57;;;11.65;;
33714;SDS011;20043;50.998;4.754;2022-09-13T16:58:42;16.83;;;11.77;;
33714;SDS011;20043;50.998;4.754;2022-09-13T17:01:11;15.82;;;11.73;;
33714;SDS011;20043;50.998;4.754;2022-09-13T17:03:38;20.08;;;12.23;;
33714;SDS011;20043;50.998;4.754;2022-09-13T17:06:05;15.88;;;11.82;;
33714;SDS011;20043;50.998;4.754;2022-09-13T17:08:32;14.75;;;11.45;;
33714;SDS011;20043;50.998;4.754;2022-09-13T17:10:59;13.43;;;10.98;;
33714;SDS011;20043;50.998;4.754;2022-09-13T17:13:28;15.75;;;11.43;;
33714;SDS011;20043;50.998;4.754;2022-09-13T17:15:53;17.10;;;10.95;;
33714;SDS011;20043;50.998;4.754;2022-09-13T17:18:19;16.13;;;11.25;;
33714;SDS011;20043;50.998;4.754;2022-09-13T17:20:46;21.13;;;11.43;;
33714;SDS011;20043;50.998;4.754;2022-09-13T17:23:13;17.05;;;12.13;;
33714;SDS011;20043;50.998;4.754;2022-09-13T17:25:40;13.30;;;10.35;;
33714;SDS011;20043;50.998;4.754;2022-09-13T17:28:11;14.77;;;10.68;;
33714;SDS011;20043;50.998;4.754;2022-09-13T17:30:37;11.65;;;10.25;;
33714;SDS011;20043;50.998;4.754;2022-09-13T17:33:03;19.08;;;11.48;;
33714;SDS011;20043;50.998;4.754;2022-09-13T17:35:32;16.88;;;11.57;;
33714;SDS011;20043;50.998;4.754;2022-09-13T17:37:58;15.75;;;11.43;;
33714;SDS011;20043;50.998;4.754;2022-09-13T17:40:25;17.05;;;12.13;;
33714;SDS011;20043;50.998;4.754;2022-09-13T17:42:52;16.08;;;11.65;;
33714;SDS011;20043;50.998;4.754;2022-09-13T17:45:18;21.10;;;12.30;;
33714;SDS011;20043;50.998;4.754;2022-09-13T17:47:44;13.95;;;10.82;;
33714;SDS011;20043;50.998;4.754;2022-09-13T17:50:09;14.48;;;11.10;;
33714;SDS011;20043;50.998;4.754;2022-09-13T17:52:35;15.82;;;11.30;;